createdAt,value
2022-12-24T00:00:31.806Z,98053.53
2022-12-24T00:05:39.053Z,98058.66
2022-12-24T00:10:42.575Z,98063.78
2022-12-24T00:15:45.989Z,98058.63
2022-12-24T00:20:50.947Z,98068.94
2022-12-24T00:25:54.097Z,98066.34
2022-12-24T00:30:57.525Z,98073.22
2022-12-24T00:36:02.457Z,98071.50
2022-12-24T00:41:06.383Z,98080.09
2022-12-24T00:46:09.709Z,98073.22
2022-12-24T00:51:14.671Z,98080.94
2022-12-24T00:56:18.575Z,98081.78
2022-12-24T01:01:22.750Z,98086.91
2022-12-24T01:06:27.744Z,98074.06
2022-12-24T01:11:30.811Z,98069.81
2022-12-24T01:16:34.395Z,98074.94
2022-12-24T01:21:39.244Z,98068.09
2022-12-24T01:26:42.565Z,98072.38
2022-12-24T01:31:46.011Z,98087.81
2022-12-24T01:36:50.897Z,98078.41
2022-12-24T01:42:11.707Z,98081.81
2022-12-24T01:47:19.884Z,98090.38
2022-12-24T01:52:28.225Z,98084.34
2022-12-24T01:57:36.092Z,98089.50
2022-12-24T02:02:41.660Z,98092.91
2022-12-24T02:07:47.358Z,98098.09
2022-12-24T02:12:52.537Z,98101.53
2022-12-24T02:18:02.448Z,98102.38
2022-12-24T02:23:28.059Z,98105.81
2022-12-24T02:28:47.926Z,98114.38
2022-12-24T02:34:01.874Z,98111.81
2022-12-24T02:39:10.395Z,98116.94
2022-12-24T02:44:13.970Z,98117.78
2022-12-24T02:49:18.698Z,98115.22
2022-12-24T02:54:22.077Z,98111.81
2022-12-24T02:59:43.876Z,98108.41
2022-12-24T03:04:56.825Z,98102.38
2022-12-24T03:10:13.515Z,98110.91
2022-12-24T03:15:20.185Z,98103.19
2022-12-24T03:20:32.669Z,98098.06
2022-12-24T03:25:40.024Z,98081.72
2022-12-24T03:30:44.802Z,98085.19
2022-12-24T03:35:49.523Z,98087.75
2022-12-24T03:40:52.995Z,98086.91
2022-12-24T03:45:56.546Z,98091.19
2022-12-24T03:51:01.286Z,98089.47
2022-12-24T03:56:04.960Z,98097.16
2022-12-24T04:01:08.603Z,98092.81
2022-12-24T04:06:16.279Z,98092.00
2022-12-24T04:11:19.680Z,98090.25
2022-12-24T04:16:23.293Z,98093.69
2022-12-24T04:21:28.167Z,98093.66
2022-12-24T04:26:31.737Z,98085.13
2022-12-24T04:31:35.277Z,98080.78
2022-12-24T04:36:40.385Z,98078.22
2022-12-24T04:41:43.725Z,98060.19
2022-12-24T04:46:47.077Z,98072.19
2022-12-24T04:51:51.787Z,98071.28
2022-12-24T04:56:55.393Z,98059.31
2022-12-24T05:01:58.962Z,98067.88
2022-12-24T05:07:03.806Z,98065.28
2022-12-24T05:12:07.541Z,98070.38
2022-12-24T05:17:11.188Z,98060.94
2022-12-24T05:22:33.585Z,98059.34
2022-12-24T05:27:37.455Z,98060.06
2022-12-24T05:32:40.787Z,98059.22
2022-12-24T05:37:45.542Z,98051.56
2022-12-24T05:42:48.890Z,98055.94
2022-12-24T05:47:52.238Z,98059.38
2022-12-24T05:52:56.957Z,98049.09
2022-12-24T05:58:00.263Z,98046.50
2022-12-24T06:03:03.839Z,98046.50
2022-12-24T06:08:08.897Z,98042.22
2022-12-24T06:13:12.019Z,98052.50
2022-12-24T06:18:15.318Z,98047.34
2022-12-24T06:23:20.591Z,98045.63
2022-12-24T06:28:24.012Z,98038.75
2022-12-24T06:33:27.333Z,98040.44
2022-12-24T06:38:32.781Z,98037.91
2022-12-24T06:43:36.904Z,98048.25
2022-12-24T06:48:40.187Z,98043.97
2022-12-24T06:53:45.158Z,98046.53
2022-12-24T06:58:48.808Z,98045.63
2022-12-24T07:03:52.378Z,98041.28
2022-12-24T07:08:57.228Z,98038.69
2022-12-24T07:14:00.759Z,98031.91
2022-12-24T07:19:04.784Z,98038.75
2022-12-24T07:24:09.739Z,98048.25
2022-12-24T07:29:12.881Z,98041.41
2022-12-24T07:34:16.454Z,98034.50
2022-12-24T07:39:21.209Z,98037.91
2022-12-24T07:44:25.277Z,98032.78
2022-12-24T07:49:28.844Z,98037.91
2022-12-24T07:54:33.801Z,98033.69
2022-12-24T07:59:36.853Z,98031.03
2022-12-24T08:04:40.696Z,98027.59
2022-12-24T08:09:46.298Z,98031.03
2022-12-24T08:14:49.615Z,98033.56
2022-12-24T08:19:52.917Z,98043.03
2022-12-24T08:24:57.981Z,98041.38
2022-12-24T08:30:01.362Z,97991.59
2022-12-24T08:35:05.148Z,98038.72
2022-12-24T08:40:11.473Z,98035.34
2022-12-24T08:45:15.009Z,98033.66
2022-12-24T08:50:18.490Z,98035.41
2022-12-24T08:55:23.349Z,98030.25
2022-12-24T09:00:26.431Z,98026.00
2022-12-24T09:05:30.364Z,98032.00
2022-12-24T09:10:35.149Z,98035.41
2022-12-24T09:15:38.524Z,98033.69
2022-12-24T09:20:46.719Z,98026.00
2022-12-24T09:25:52.134Z,98019.13
2022-12-24T09:30:59.785Z,98021.69
2022-12-24T09:36:03.849Z,98005.41
2022-12-24T09:41:16.093Z,98011.44
2022-12-24T09:46:24.304Z,98019.09
2022-12-24T09:51:33.517Z,98016.53
2022-12-24T09:56:41.708Z,98014.88
2022-12-24T10:01:45.331Z,98016.53
2022-12-24T10:07:00.014Z,98020.00
2022-12-24T10:12:10.950Z,98020.84
2022-12-24T10:17:31.263Z,98019.13
2022-12-24T10:22:42.484Z,98011.41
2022-12-24T10:27:47.927Z,98024.25
2022-12-24T10:32:54.004Z,98016.53
2022-12-24T10:37:58.576Z,98013.13
2022-12-24T10:43:03.447Z,98021.69
2022-12-24T10:48:13.554Z,98020.00
2022-12-24T10:53:21.624Z,98021.72
2022-12-24T10:58:26.532Z,98023.44
2022-12-24T11:03:33.425Z,98028.59
2022-12-24T11:08:37.992Z,98036.25
2022-12-24T11:13:46.216Z,98045.72
2022-12-24T11:18:52.627Z,98044.00
2022-12-24T11:23:58.757Z,98056.81
2022-12-24T11:29:15.145Z,98057.72
2022-12-24T11:34:27.266Z,98048.28
2022-12-24T11:39:30.693Z,98047.31
2022-12-24T11:44:35.969Z,98079.97
2022-12-24T11:49:39.455Z,98076.53
2022-12-24T11:54:53.054Z,98077.41
2022-12-24T11:59:57.849Z,98088.50
2022-12-24T12:05:10.288Z,98074.81
2022-12-24T12:10:25.780Z,98082.59
2022-12-24T12:15:35.679Z,98098.84
2022-12-24T12:20:43.116Z,98109.16
2022-12-24T12:25:55.461Z,98117.78
2022-12-24T12:31:07.035Z,98127.97
2022-12-24T12:36:17.235Z,98123.75
2022-12-24T12:41:28.638Z,98142.63
2022-12-24T12:46:45.243Z,98149.50
2022-12-24T12:51:58.191Z,98144.41
2022-12-24T12:57:09.038Z,98158.97
2022-12-24T13:02:30.074Z,98167.56
2022-12-24T13:07:53.128Z,98166.72
2022-12-24T13:13:20.615Z,98173.56
2022-12-24T13:18:54.481Z,98182.19
2022-12-24T13:24:08.143Z,98192.47
2022-12-24T13:29:39.621Z,98190.75
2022-12-24T13:34:50.108Z,98208.81
2022-12-24T13:40:17.102Z,98201.94
2022-12-24T13:45:49.700Z,98217.38
2022-12-24T13:50:56.738Z,98218.22
2022-12-24T13:56:07.753Z,98227.69
2022-12-24T14:01:14.794Z,98243.13
2022-12-24T14:06:26.485Z,98243.13
2022-12-24T14:11:34.603Z,98255.09
2022-12-24T14:16:49.997Z,98268.03
2022-12-24T14:22:02.647Z,98260.25
2022-12-24T14:27:18.616Z,98279.97
2022-12-24T14:32:22.015Z,98289.44
2022-12-24T14:37:32.984Z,98296.28
2022-12-24T14:42:46.576Z,98295.47
2022-12-24T14:47:57.921Z,98303.19
2022-12-24T14:53:19.067Z,98307.50
2022-12-24T14:58:26.450Z,98310.91
2022-12-24T15:03:32.447Z,98313.47
2022-12-24T15:08:41.793Z,98322.06
2022-12-24T15:13:49.359Z,98333.22
2022-12-24T15:18:56.908Z,98338.38
2022-12-24T15:24:03.171Z,98338.38
2022-12-24T15:29:15.952Z,98338.41
2022-12-24T15:34:28.138Z,98331.50
2022-12-24T15:39:33.423Z,98346.09
2022-12-24T15:44:39.084Z,98361.56
2022-12-24T15:49:47.602Z,98362.41
2022-12-24T15:54:57.675Z,98358.06
2022-12-24T16:00:02.706Z,98369.28
2022-12-24T16:05:30.507Z,98377.81
2022-12-24T16:10:36.015Z,98389.00
2022-12-24T16:15:49.726Z,98389.84
2022-12-24T16:20:55.544Z,98404.38
2022-12-24T16:26:01.043Z,98419.81
2022-12-24T16:31:05.093Z,98424.06
2022-12-24T16:36:09.117Z,98436.97
2022-12-24T16:41:14.117Z,98446.38
2022-12-24T16:46:17.777Z,98438.53
2022-12-24T16:51:21.214Z,98466.06
2022-12-24T16:56:26.155Z,98466.84
2022-12-24T17:01:29.302Z,98478.88
2022-12-24T17:06:32.876Z,98477.88
2022-12-24T17:11:37.784Z,98475.34
2022-12-24T17:16:40.816Z,98492.59
2022-12-24T17:21:44.343Z,98497.69
2022-12-24T17:26:49.301Z,98502.78
2022-12-24T17:31:53.329Z,98507.06
2022-12-24T17:36:56.815Z,98509.63
2022-12-24T17:42:01.857Z,98526.88
2022-12-24T17:47:05.494Z,98531.16
2022-12-24T17:52:08.809Z,98537.00
2022-12-24T17:57:13.746Z,98560.97
2022-12-24T18:02:17.300Z,98563.13
2022-12-24T18:07:20.723Z,98575.81
2022-12-24T18:12:25.836Z,98581.84
2022-12-24T18:17:29.343Z,98592.09
2022-12-24T18:22:32.748Z,98592.09
2022-12-24T18:27:38.153Z,98611.81
2022-12-24T18:32:41.698Z,98611.81
2022-12-24T18:37:45.037Z,98620.28
2022-12-24T18:42:49.828Z,98636.44
2022-12-24T18:47:53.146Z,98646.63
2022-12-24T18:52:56.638Z,98656.09
2022-12-24T18:58:01.377Z,98655.25
2022-12-24T19:03:05.065Z,98657.63
2022-12-24T19:08:37.624Z,98668.50
2022-12-24T19:13:33.452Z,98675.59
2022-12-24T19:18:36.513Z,98680.03
2022-12-24T19:23:40.062Z,98691.81
2022-12-24T19:28:45.255Z,98699.69
2022-12-24T19:33:50.488Z,98697.25
2022-12-24T19:38:54.313Z,98710.16
2022-12-24T19:44:01.208Z,98710.00
2022-12-24T19:49:06.946Z,98717.00
2022-12-24T19:54:18.690Z,98731.50
2022-12-24T19:59:24.013Z,98718.50
2022-12-24T20:04:27.512Z,98743.50
2022-12-24T20:09:32.919Z,98748.72
2022-12-24T20:14:37.833Z,98753.13
2022-12-24T20:19:42.537Z,98758.06
2022-12-24T20:24:46.203Z,98754.53
2022-12-24T20:29:51.000Z,98770.09
2022-12-24T20:34:54.525Z,98776.16
2022-12-24T20:39:58.006Z,98775.41
2022-12-24T20:45:04.494Z,98781.44
2022-12-24T20:50:09.026Z,98800.31
2022-12-24T20:55:12.445Z,98802.81
2022-12-24T21:00:18.605Z,98804.69
2022-12-24T21:05:22.120Z,98816.56
2022-12-24T21:10:30.706Z,98821.72
2022-12-24T21:15:40.593Z,98834.50
2022-12-24T21:20:44.089Z,98843.91
2022-12-24T21:25:57.870Z,98838.53
2022-12-24T21:31:02.887Z,98846.16
2022-12-24T21:36:06.589Z,98862.31
2022-12-24T21:41:12.459Z,98860.53
2022-12-24T21:46:20.209Z,98863.81
2022-12-24T21:51:24.422Z,98884.16
2022-12-24T21:56:27.887Z,98881.38
2022-12-24T22:01:32.867Z,98895.13
2022-12-24T22:06:53.721Z,98904.34
2022-12-24T22:11:57.201Z,98913.63
2022-12-24T22:17:02.192Z,98918.78
2022-12-24T22:22:05.710Z,98918.03
2022-12-24T22:27:09.125Z,98933.16
2022-12-24T22:32:13.989Z,98938.22
2022-12-24T22:37:17.128Z,98950.09
2022-12-24T22:42:20.989Z,98961.84
2022-12-24T22:47:25.790Z,98982.38
2022-12-24T22:52:29.614Z,98983.69
2022-12-24T22:57:33.160Z,98980.75
2022-12-24T23:02:38.186Z,98988.38
2022-12-24T23:07:41.851Z,98999.47
2022-12-24T23:13:02.833Z,99011.22
2022-12-24T23:18:08.758Z,99019.66
2022-12-24T23:23:12.708Z,99023.63
2022-12-24T23:28:16.043Z,99002.34
2022-12-24T23:33:21.049Z,99030.50
2022-12-24T23:38:24.343Z,99039.91
2022-12-24T23:43:27.910Z,99048.69
2022-12-24T23:48:32.971Z,99063.34
2022-12-24T23:53:36.524Z,99085.50
2022-12-24T23:58:40.668Z,99092.97
